Time;durP1;ratioP1;P1;durP2;ratioP2;P2;SDS_P1;SDS_P2;PMS_P1;PMS_P2;Temp;Humidity;BMP_temperature;BMP_pressure;BME280_temperature;BME280_humidity;BME280_pressure;Samples;Min_cycle;Max_cycle;Signal;HPM_P1;HPM_P2
2021/07/23 00:01:36;;;;;;;19.97;13.07;;;16.00;99.90;;;;;;5084417;28;20263;-83
2021/07/23 00:04:01;;;;;;;20.07;12.60;;;16.00;99.90;;;;;;5086682;28;20237;-83
2021/07/23 00:06:27;;;;;;;19.83;12.37;;;16.00;99.90;;;;;;5086830;28;20670;-83
2021/07/23 00:08:53;;;;;;;17.60;11.80;;;16.00;99.90;;;;;;5088724;28;20318;-82
2021/07/23 00:11:18;;;;;;;16.40;11.30;;;16.00;99.90;;;;;;5089174;28;20259;-83
2021/07/23 00:13:44;;;;;;;16.43;11.17;;;16.00;99.90;;;;;;5090231;28;20264;-83
2021/07/23 00:16:10;;;;;;;16.27;11.53;;;15.90;99.90;;;;;;5084758;28;20195;-83
2021/07/23 00:18:35;;;;;;;15.53;11.50;;;15.90;99.90;;;;;;5083964;28;20188;-83
2021/07/23 00:21:01;;;;;;;17.43;11.83;;;15.90;99.90;;;;;;5092776;28;20184;-84
2021/07/23 00:23:26;;;;;;;15.83;11.43;;;15.80;99.90;;;;;;5097859;28;20208;-83
2021/07/23 00:25:52;;;;;;;15.73;10.63;;;15.80;99.90;;;;;;5083254;28;20169;-82
2021/07/23 00:28:18;;;;;;;13.90;10.37;;;15.80;99.90;;;;;;5079331;28;20205;-82
2021/07/23 00:30:43;;;;;;;14.63;10.57;;;15.70;99.90;;;;;;5088867;28;20165;-83
2021/07/23 00:33:09;;;;;;;15.07;11.00;;;15.70;99.90;;;;;;5086705;28;20252;-83
2021/07/23 00:35:34;;;;;;;16.10;11.50;;;15.70;99.90;;;;;;5084373;28;20177;-83
2021/07/23 00:38:00;;;;;;;15.03;10.37;;;15.70;99.90;;;;;;5085075;28;20222;-83
2021/07/23 00:40:26;;;;;;;16.70;10.97;;;15.70;99.90;;;;;;5083938;28;20181;-83
2021/07/23 00:42:51;;;;;;;14.93;10.57;;;15.70;99.90;;;;;;5082085;28;20207;-83
2021/07/23 00:45:19;;;;;;;18.20;10.37;;;15.70;99.90;;;;;;5082094;28;20639;-83
2021/07/23 00:47:48;;;;;;;15.50;11.20;;;15.70;99.90;;;;;;5082004;28;20208;-82
2021/07/23 00:50:14;;;;;;;15.80;11.27;;;15.70;99.90;;;;;;5083975;28;20173;-83
2021/07/23 00:52:40;;;;;;;16.23;10.97;;;15.70;99.90;;;;;;5083814;28;20287;-83
2021/07/23 00:55:07;;;;;;;14.37;10.73;;;15.60;99.90;;;;;;5083649;28;20252;-83
2021/07/23 00:57:35;;;;;;;18.67;12.03;;;15.50;99.90;;;;;;5082249;28;20713;-83
2021/07/23 01:00:01;;;;;;;17.67;11.43;;;15.50;99.90;;;;;;5083459;28;20179;-83
2021/07/23 01:02:27;;;;;;;18.20;12.23;;;15.50;99.90;;;;;;5082063;28;20562;-83
2021/07/23 01:04:53;;;;;;;18.30;11.83;;;15.50;99.90;;;;;;5084011;28;20189;-82
2021/07/23 01:07:19;;;;;;;16.93;12.03;;;15.50;99.90;;;;;;5081409;28;20647;-83
2021/07/23 01:09:45;;;;;;;18.90;11.50;;;15.50;99.90;;;;;;5084245;28;20177;-82
2021/07/23 01:12:12;;;;;;;16.17;11.67;;;15.50;99.90;;;;;;5084612;28;20633;-83
2021/07/23 01:14:39;;;;;;;16.70;12.10;;;15.40;99.90;;;;;;5084412;28;20174;-83
2021/07/23 01:17:05;;;;;;;18.83;11.57;;;15.40;99.90;;;;;;5085906;28;20173;-83
2021/07/23 01:19:53;;;;;;;16.30;11.57;;;15.40;99.90;;;;;;5083198;28;20181;-83
2021/07/23 01:22:21;;;;;;;16.93;11.40;;;15.40;99.90;;;;;;5085501;28;20185;-83
2021/07/23 01:24:47;;;;;;;16.60;11.77;;;15.40;99.90;;;;;;5085382;28;20173;-83
2021/07/23 01:27:14;;;;;;;17.43;12.03;;;15.30;99.90;;;;;;5086022;28;20200;-83
2021/07/23 01:29:40;;;;;;;16.27;12.20;;;15.20;99.90;;;;;;5084363;28;20169;-83
2021/07/23 01:32:06;;;;;;;19.87;13.23;;;15.20;99.90;;;;;;5083537;28;20197;-83
2021/07/23 01:34:32;;;;;;;17.97;13.33;;;15.10;99.90;;;;;;5083593;28;20172;-83
2021/07/23 01:36:58;;;;;;;19.23;12.73;;;15.10;99.90;;;;;;5083989;28;20275;-83
2021/07/23 01:39:25;;;;;;;15.20;12.30;;;15.00;99.90;;;;;;5083593;28;20323;-83
2021/07/23 01:41:51;;;;;;;19.80;13.77;;;15.00;99.90;;;;;;5085115;28;20278;-83
2021/07/23 01:44:17;;;;;;;21.90;14.37;;;15.00;99.90;;;;;;5083935;28;20177;-84
2021/07/23 01:46:43;;;;;;;21.43;13.50;;;15.00;99.90;;;;;;5085222;28;20248;-83
2021/07/23 01:49:08;;;;;;;19.90;13.53;;;15.00;99.90;;;;;;5085285;28;20301;-83
2021/07/23 01:51:34;;;;;;;22.70;15.13;;;15.00;99.90;;;;;;5087089;28;20221;-83
2021/07/23 01:54:00;;;;;;;20.93;14.73;;;15.00;99.90;;;;;;5087666;28;20173;-83
2021/07/23 01:56:25;;;;;;;20.57;14.63;;;15.00;99.90;;;;;;5087661;28;20654;-83
2021/07/23 01:58:51;;;;;;;22.53;15.67;;;15.00;99.90;;;;;;5083308;28;20177;-83
2021/07/23 02:01:17;;;;;;;22.10;15.03;;;15.00;99.90;;;;;;5081188;28;20176;-83
2021/07/23 02:03:42;;;;;;;21.30;14.67;;;14.90;99.90;;;;;;5081249;28;20188;-83
2021/07/23 02:06:08;;;;;;;23.07;15.57;;;14.90;99.90;;;;;;5082892;28;20192;-83
2021/07/23 02:08:33;;;;;;;21.33;16.10;;;14.90;99.90;;;;;;5080997;28;20601;-83
2021/07/23 02:11:01;;;;;;;21.90;16.27;;;14.90;99.90;;;;;;5081361;28;20177;-83
2021/07/23 02:13:26;;;;;;;22.90;15.67;;;14.90;99.90;;;;;;5081342;28;20197;-83
2021/07/23 02:15:52;;;;;;;23.23;15.80;;;14.90;99.90;;;;;;5081790;28;20191;-83
2021/07/23 02:18:17;;;;;;;24.40;14.47;;;14.90;99.90;;;;;;5081269;28;20173;-83
2021/07/23 02:20:43;;;;;;;24.07;16.93;;;14.90;99.90;;;;;;5081535;28;20183;-83
2021/07/23 02:23:09;;;;;;;23.63;15.90;;;14.90;99.90;;;;;;5083099;28;20199;-83
2021/07/23 02:25:35;;;;;;;21.50;15.40;;;14.90;99.90;;;;;;5096469;28;20275;-83
2021/07/23 02:28:01;;;;;;;21.23;14.83;;;14.90;99.90;;;;;;5095401;28;20221;-83
2021/07/23 02:30:27;;;;;;;20.93;14.43;;;14.90;99.90;;;;;;5092541;28;20211;-83
2021/07/23 02:32:52;;;;;;;18.63;13.80;;;14.80;99.90;;;;;;5084906;28;20196;-83
2021/07/23 02:35:18;;;;;;;26.07;15.37;;;14.80;99.90;;;;;;5084526;28;20235;-83
2021/07/23 02:37:44;;;;;;;22.57;15.93;;;14.80;99.90;;;;;;5082789;28;20180;-83
2021/07/23 02:40:10;;;;;;;24.47;16.17;;;14.70;99.90;;;;;;5082116;28;20181;-83
2021/07/23 02:42:36;;;;;;;22.07;15.77;;;14.80;99.90;;;;;;5081937;28;20200;-83
2021/07/23 02:45:01;;;;;;;23.50;16.10;;;14.70;99.90;;;;;;5083236;28;20532;-83
2021/07/23 02:47:27;;;;;;;30.47;16.93;;;14.70;99.90;;;;;;5081107;28;20212;-83
2021/07/23 02:49:53;;;;;;;20.10;14.90;;;14.70;99.90;;;;;;5082996;28;20234;-83
2021/07/23 02:52:18;;;;;;;24.70;16.07;;;14.70;99.90;;;;;;5082487;28;20216;-83
2021/07/23 02:54:44;;;;;;;22.80;16.23;;;14.70;99.90;;;;;;5083262;28;20184;-83
2021/07/23 02:57:09;;;;;;;24.23;16.33;;;14.70;99.90;;;;;;5083389;28;20185;-83
2021/07/23 02:59:35;;;;;;;22.57;16.13;;;14.70;99.90;;;;;;5083464;28;20176;-83
2021/07/23 03:02:01;;;;;;;23.17;15.47;;;14.70;99.90;;;;;;5081493;28;20200;-83
2021/07/23 03:04:26;;;;;;;23.23;16.50;;;14.70;99.90;;;;;;5083183;28;20236;-83
2021/07/23 03:06:53;;;;;;;23.73;15.67;;;14.60;99.90;;;;;;5080867;28;20208;-83
2021/07/23 03:09:18;;;;;;;21.57;14.70;;;14.60;99.90;;;;;;5082320;28;20219;-83
2021/07/23 03:11:44;;;;;;;26.33;16.07;;;14.50;99.90;;;;;;5083363;28;20575;-83
2021/07/23 03:14:09;;;;;;;21.73;15.10;;;14.50;99.90;;;;;;5082638;28;20168;-83
2021/07/23 03:16:35;;;;;;;22.33;15.27;;;14.50;99.90;;;;;;5082868;28;20248;-82
2021/07/23 03:19:01;;;;;;;24.27;14.87;;;14.50;99.90;;;;;;5083351;28;20176;-82
2021/07/23 03:21:26;;;;;;;22.70;14.37;;;14.40;99.90;;;;;;5083084;28;20209;-83
2021/07/23 03:23:52;;;;;;;20.57;14.50;;;14.40;99.90;;;;;;5081442;28;20268;-83
2021/07/23 03:26:19;;;;;;;20.50;14.43;;;14.40;99.90;;;;;;5082136;28;20187;-83
2021/07/23 03:28:45;;;;;;;20.47;14.37;;;14.40;99.90;;;;;;5081701;28;20207;-83
2021/07/23 03:31:14;;;;;;;24.77;14.90;;;14.40;99.90;;;;;;5082074;28;20188;-83
2021/07/23 03:33:40;;;;;;;21.50;14.40;;;14.40;99.90;;;;;;5083286;28;20181;-82
2021/07/23 03:36:06;;;;;;;22.70;14.27;;;14.40;99.90;;;;;;5084076;28;20508;-83
2021/07/23 03:38:32;;;;;;;21.77;15.03;;;14.40;99.90;;;;;;5082246;28;20712;-83
2021/07/23 03:40:58;;;;;;;19.77;15.13;;;14.40;99.90;;;;;;5082237;28;20607;-83
2021/07/23 03:43:23;;;;;;;21.47;15.03;;;14.30;99.90;;;;;;5080679;28;20202;-82
2021/07/23 03:45:49;;;;;;;21.90;13.87;;;14.40;99.90;;;;;;5080241;28;20744;-83
2021/07/23 03:48:15;;;;;;;21.13;14.93;;;14.40;99.90;;;;;;5081464;28;20208;-81
2021/07/23 03:50:45;;;;;;;23.50;15.27;;;14.40;99.90;;;;;;5080855;28;20272;-83
2021/07/23 03:53:11;;;;;;;20.60;14.47;;;14.40;99.90;;;;;;5079676;28;20291;-83
2021/07/23 03:55:37;;;;;;;19.77;14.40;;;14.40;99.90;;;;;;5081157;28;20200;-84
2021/07/23 03:58:04;;;;;;;23.63;15.40;;;14.40;99.90;;;;;;5081231;28;20188;-83
2021/07/23 04:00:30;;;;;;;22.83;14.97;;;14.30;99.90;;;;;;5081425;28;20181;-82
2021/07/23 04:02:55;;;;;;;22.50;15.30;;;14.30;99.90;;;;;;5081943;28;20207;-82
2021/07/23 04:05:21;;;;;;;20.83;15.13;;;14.30;99.90;;;;;;5082406;28;20275;-82
2021/07/23 04:07:46;;;;;;;26.47;14.80;;;14.30;99.90;;;;;;5082390;28;20676;-83
2021/07/23 04:10:12;;;;;;;21.37;15.33;;;14.30;99.90;;;;;;5082881;28;20173;-83
2021/07/23 04:12:38;;;;;;;22.43;16.27;;;14.30;99.90;;;;;;5079014;28;20197;-84
2021/07/23 04:15:09;;;;;;;22.47;15.17;;;14.30;99.90;;;;;;5079052;28;20177;-83
2021/07/23 04:17:35;;;;;;;20.47;15.03;;;14.30;99.90;;;;;;5080985;28;20203;-83
2021/07/23 04:20:01;;;;;;;21.30;13.80;;;14.30;99.90;;;;;;5084350;28;20208;-83
2021/07/23 04:22:27;;;;;;;22.87;15.27;;;14.30;99.90;;;;;;5083005;28;20195;-83
2021/07/23 04:24:53;;;;;;;23.10;16.27;;;14.30;99.90;;;;;;5082862;28;20180;-82
2021/07/23 04:27:18;;;;;;;23.60;14.27;;;14.30;99.90;;;;;;5080943;28;20215;-82
2021/07/23 04:29:47;;;;;;;20.80;14.00;;;14.30;99.90;;;;;;5084230;28;20241;-82
2021/07/23 04:32:13;;;;;;;24.50;13.47;;;14.40;99.90;;;;;;5079964;28;20201;-82
2021/07/23 04:34:39;;;;;;;23.57;14.13;;;14.30;99.90;;;;;;5087710;28;20177;-82
2021/07/23 04:37:04;;;;;;;20.73;14.13;;;14.30;99.90;;;;;;5096640;28;20168;-82
2021/07/23 04:39:30;;;;;;;20.73;14.00;;;14.30;99.90;;;;;;5094425;28;20265;-82
2021/07/23 04:41:56;;;;;;;21.03;13.90;;;14.30;99.90;;;;;;5085344;28;20284;-82
2021/07/23 04:44:22;;;;;;;22.77;14.50;;;14.30;99.90;;;;;;5085179;28;20653;-83
2021/07/23 04:46:47;;;;;;;23.47;14.63;;;14.30;99.90;;;;;;5084042;28;20180;-82
2021/07/23 04:49:13;;;;;;;24.27;13.13;;;14.30;99.90;;;;;;5083955;28;20180;-83
2021/07/23 04:51:39;;;;;;;22.33;14.67;;;14.30;99.90;;;;;;5085433;28;20199;-82
2021/07/23 04:54:05;;;;;;;21.87;14.30;;;14.40;99.90;;;;;;5083555;28;20595;-82
2021/07/23 04:56:30;;;;;;;24.40;15.90;;;14.40;99.90;;;;;;5084693;28;20547;-82
2021/07/23 04:58:56;;;;;;;22.87;14.60;;;14.40;99.90;;;;;;5086045;28;20531;-82
2021/07/23 05:01:21;;;;;;;22.77;15.50;;;14.60;99.90;;;;;;5087157;28;20197;-81
2021/07/23 05:03:47;;;;;;;20.23;14.77;;;14.60;99.90;;;;;;5085692;28;20176;-82
2021/07/23 05:06:13;;;;;;;26.07;15.13;;;14.60;99.90;;;;;;5086262;28;20188;-82
2021/07/23 05:08:39;;;;;;;24.20;14.87;;;14.70;99.90;;;;;;5085450;28;20291;-81
2021/07/23 05:11:13;;;;;;;20.70;13.80;;;14.70;99.90;;;;;;5084894;28;20208;-82
2021/07/23 05:13:39;;;;;;;25.30;15.03;;;14.70;99.90;;;;;;5085225;28;20192;-82
2021/07/23 05:16:05;;;;;;;22.80;15.00;;;14.80;99.90;;;;;;5087095;28;20169;-81
2021/07/23 05:18:33;;;;;;;19.87;14.40;;;14.80;99.90;;;;;;5089013;28;20184;-82
2021/07/23 05:20:58;;;;;;;22.93;15.33;;;14.80;99.90;;;;;;5086138;28;20242;-82
2021/07/23 05:23:24;;;;;;;19.67;14.07;;;14.80;99.90;;;;;;5085420;28;20527;-82
2021/07/23 05:25:50;;;;;;;20.87;14.93;;;14.80;99.90;;;;;;5082211;28;20216;-82
2021/07/23 05:28:16;;;;;;;24.23;15.97;;;14.90;99.90;;;;;;5083265;28;20202;-82
2021/07/23 05:30:41;;;;;;;21.80;14.67;;;15.00;99.90;;;;;;5083116;28;20635;-82
2021/07/23 05:33:07;;;;;;;23.97;15.50;;;15.00;99.90;;;;;;5082945;28;20193;-82
2021/07/23 05:35:33;;;;;;;28.67;15.50;;;15.10;99.90;;;;;;5081395;28;20173;-81
2021/07/23 05:37:59;;;;;;;19.43;15.40;;;15.10;99.90;;;;;;5084583;28;20175;-82
2021/07/23 05:40:24;;;;;;;23.43;16.20;;;15.20;99.90;;;;;;5081856;28;20177;-81
2021/07/23 05:42:53;;;;;;;25.40;15.97;;;15.20;99.90;;;;;;5083474;28;20598;-81
2021/07/23 05:45:19;;;;;;;23.23;15.47;;;15.20;99.90;;;;;;5080407;28;20232;-81
2021/07/23 05:47:45;;;;;;;22.03;14.87;;;15.30;99.90;;;;;;5081557;28;20201;-81
2021/07/23 05:50:11;;;;;;;21.77;15.03;;;15.30;99.90;;;;;;5083214;28;20648;-82
2021/07/23 05:52:36;;;;;;;19.93;14.80;;;15.40;99.90;;;;;;5082250;28;20192;-82
2021/07/23 05:55:02;;;;;;;19.53;14.80;;;15.50;99.90;;;;;;5083523;28;20192;-81
2021/07/23 05:57:28;;;;;;;22.10;14.50;;;15.50;99.90;;;;;;5082273;28;20174;-82
2021/07/23 05:59:53;;;;;;;23.57;14.67;;;15.50;99.90;;;;;;5080736;28;20637;-81
2021/07/23 06:02:19;;;;;;;18.73;14.17;;;15.60;99.90;;;;;;5080997;28;20254;-83
2021/07/23 06:04:45;;;;;;;22.03;14.73;;;15.70;99.90;;;;;;5079828;28;20184;-82
2021/07/23 06:07:10;;;;;;;20.43;13.50;;;15.70;99.90;;;;;;5081003;28;20246;-82
2021/07/23 06:09:36;;;;;;;19.50;14.77;;;15.80;99.90;;;;;;5078571;28;20173;-82
2021/07/23 06:12:02;;;;;;;20.30;13.33;;;15.80;99.90;;;;;;5078045;28;20242;-81
2021/07/23 06:14:27;;;;;;;19.37;14.27;;;15.90;99.90;;;;;;5089049;28;20181;-82
2021/07/23 06:16:55;;;;;;;20.17;13.00;;;16.00;99.90;;;;;;5084425;28;20205;-82
2021/07/23 06:19:21;;;;;;;19.40;13.60;;;16.00;99.90;;;;;;5082790;28;20170;-82
2021/07/23 06:21:46;;;;;;;20.13;13.60;;;16.10;99.90;;;;;;5083378;28;20268;-82
2021/07/23 06:24:12;;;;;;;23.57;13.57;;;16.20;99.90;;;;;;5083275;28;20183;-83
2021/07/23 06:26:38;;;;;;;19.37;12.27;;;16.20;99.90;;;;;;5083892;28;20241;-82
2021/07/23 06:29:04;;;;;;;19.97;13.47;;;16.30;99.90;;;;;;5085249;28;20256;-82
2021/07/23 06:31:29;;;;;;;21.00;12.93;;;16.40;99.90;;;;;;5084428;28;20173;-82
2021/07/23 06:33:55;;;;;;;23.80;12.57;;;16.50;99.90;;;;;;5084438;28;20198;-82
2021/07/23 06:36:21;;;;;;;18.83;12.57;;;16.60;99.90;;;;;;5084559;28;20180;-82
2021/07/23 06:38:47;;;;;;;19.60;12.50;;;16.70;99.90;;;;;;5085644;28;20205;-82
2021/07/23 06:41:12;;;;;;;16.37;11.83;;;16.80;99.90;;;;;;5083741;28;20186;-82
2021/07/23 06:43:38;;;;;;;19.87;12.60;;;16.90;99.90;;;;;;5087782;28;20224;-83
2021/07/23 06:46:04;;;;;;;17.60;12.43;;;17.00;99.90;;;;;;5089676;28;20181;-82
2021/07/23 06:48:30;;;;;;;18.30;12.00;;;17.10;99.90;;;;;;5086688;28;20666;-82
2021/07/23 06:50:56;;;;;;;19.10;13.00;;;17.20;99.90;;;;;;5083199;28;20184;-82
2021/07/23 06:53:21;;;;;;;15.87;12.23;;;17.30;99.90;;;;;;5085607;28;20269;-82
2021/07/23 06:55:47;;;;;;;17.10;11.87;;;17.40;99.90;;;;;;5083862;28;20179;-82
2021/07/23 06:58:13;;;;;;;19.57;12.43;;;17.50;99.90;;;;;;5086429;28;20202;-82
2021/07/23 07:00:39;;;;;;;20.73;12.00;;;17.60;99.90;;;;;;5087515;28;20234;-81
2021/07/23 07:03:08;;;;;;;22.87;11.23;;;17.60;99.90;;;;;;5086951;28;20214;-82
2021/07/23 07:05:34;;;;;;;16.43;11.97;;;17.70;99.90;;;;;;5084636;28;20242;-82
2021/07/23 07:08:00;;;;;;;18.13;10.90;;;17.80;99.90;;;;;;5083647;28;20786;-82
2021/07/23 07:10:26;;;;;;;15.73;11.80;;;17.90;99.90;;;;;;5084305;28;20174;-81
2021/07/23 07:12:59;;;;;;;16.10;11.30;;;18.00;99.90;;;;;;5084596;28;20203;-82
2021/07/23 07:15:25;;;;;;;15.70;11.63;;;18.10;99.90;;;;;;5084636;28;20246;-81
2021/07/23 07:17:57;;;;;;;16.57;10.87;;;18.30;99.90;;;;;;5084967;28;20194;-82
2021/07/23 07:20:23;;;;;;;16.40;11.27;;;18.40;99.90;;;;;;5085112;28;20226;-82
2021/07/23 07:22:49;;;;;;;16.03;10.97;;;18.50;99.90;;;;;;5086367;28;20203;-82
2021/07/23 07:25:14;;;;;;;21.23;12.33;;;18.60;99.90;;;;;;5086590;28;20186;-82
2021/07/23 07:27:40;;;;;;;18.57;12.43;;;18.70;99.90;;;;;;5088049;28;20208;-82
2021/07/23 07:30:06;;;;;;;16.83;11.33;;;18.80;99.90;;;;;;5092127;28;20176;-82
2021/07/23 07:32:31;;;;;;;18.50;11.70;;;19.00;99.90;;;;;;5095370;28;20233;-82
2021/07/23 07:34:57;;;;;;;18.90;11.60;;;19.20;99.90;;;;;;5083112;28;20534;-81
2021/07/23 07:37:23;;;;;;;15.60;11.63;;;19.30;99.90;;;;;;5082327;28;20171;-81
2021/07/23 07:39:49;;;;;;;17.07;11.40;;;19.50;99.90;;;;;;5081966;28;20164;-81
2021/07/23 07:42:16;;;;;;;22.47;12.30;;;19.60;99.90;;;;;;5081181;28;20193;-82
2021/07/23 07:44:42;;;;;;;17.67;12.27;;;19.80;99.90;;;;;;5081384;28;20177;-82
2021/07/23 07:47:08;;;;;;;15.80;12.10;;;20.00;99.90;;;;;;5083010;28;20219;-81
2021/07/23 07:49:33;;;;;;;19.37;12.73;;;20.10;99.90;;;;;;5082161;28;20173;-81
2021/07/23 07:51:59;;;;;;;18.50;11.67;;;20.20;99.90;;;;;;5082092;28;20219;-81
2021/07/23 07:54:24;;;;;;;20.20;12.30;;;20.30;99.90;;;;;;5082205;28;20165;-81
2021/07/23 07:56:51;;;;;;;17.30;11.53;;;20.50;99.90;;;;;;5082054;28;20188;-82
2021/07/23 07:59:17;;;;;;;18.40;12.77;;;20.60;99.90;;;;;;5080809;28;20168;-81
2021/07/23 08:01:42;;;;;;;15.93;12.23;;;20.80;99.90;;;;;;5079441;28;20287;-82
2021/07/23 08:04:08;;;;;;;18.33;12.63;;;20.90;99.90;;;;;;5078862;28;20199;-81
2021/07/23 08:06:36;;;;;;;15.93;12.10;;;21.00;99.90;;;;;;5079571;28;20248;-82
2021/07/23 08:09:05;;;;;;;18.20;11.73;;;21.10;99.90;;;;;;5079783;28;20539;-82
2021/07/23 08:11:32;;;;;;;19.17;12.13;;;21.20;99.90;;;;;;5090408;28;20369;-82
2021/07/23 08:13:58;;;;;;;20.53;13.43;;;21.20;99.90;;;;;;5088227;28;20194;-83
2021/07/23 08:16:24;;;;;;;19.47;12.93;;;21.30;99.90;;;;;;5081759;28;20165;-82
2021/07/23 08:18:50;;;;;;;18.50;12.80;;;21.40;99.90;;;;;;5082633;28;20184;-82
2021/07/23 08:21:15;;;;;;;19.33;12.73;;;21.60;99.90;;;;;;5088469;28;20684;-81
2021/07/23 08:23:41;;;;;;;18.73;12.43;;;21.60;99.90;;;;;;5087426;28;20247;-81
2021/07/23 08:26:07;;;;;;;17.80;12.27;;;21.70;99.90;;;;;;5089811;28;20232;-81
2021/07/23 08:28:33;;;;;;;23.83;13.97;;;21.80;99.90;;;;;;5086583;28;20666;-80
2021/07/23 08:30:59;;;;;;;16.33;12.53;;;21.90;99.90;;;;;;5085200;28;20169;-81
2021/07/23 08:33:25;;;;;;;15.93;12.47;;;22.00;99.90;;;;;;5083331;28;20222;-81
2021/07/23 08:35:51;;;;;;;15.63;12.63;;;22.10;99.90;;;;;;5089160;28;20181;-81
2021/07/23 08:38:17;;;;;;;16.03;12.73;;;22.30;99.90;;;;;;5088207;28;20177;-82
2021/07/23 08:40:43;;;;;;;15.37;12.73;;;22.50;99.90;;;;;;5090579;28;20190;-81
2021/07/23 08:43:10;;;;;;;18.77;13.47;;;22.60;99.90;;;;;;5090915;28;20209;-82
2021/07/23 08:45:36;;;;;;;18.80;12.43;;;22.70;99.90;;;;;;5090359;28;20714;-82
2021/07/23 08:48:03;;;;;;;19.73;13.90;;;22.80;99.90;;;;;;5087166;28;20698;-82
2021/07/23 08:50:29;;;;;;;17.43;12.97;;;23.00;99.90;;;;;;5086745;28;20181;-82
2021/07/23 08:52:55;;;;;;;19.00;12.50;;;23.20;99.90;;;;;;5090219;28;20202;-82
2021/07/23 08:55:22;;;;;;;21.23;13.33;;;23.40;99.90;;;;;;5092700;28;20198;-82
2021/07/23 08:57:48;;;;;;;22.00;13.83;;;23.60;99.90;;;;;;5089431;28;20166;-82
2021/07/23 09:00:19;;;;;;;17.97;12.40;;;23.60;99.90;;;;;;5088559;28;20267;-82
2021/07/23 09:02:51;;;;;;;18.60;12.40;;;23.60;99.90;;;;;;5087675;28;20198;-82
2021/07/23 09:05:18;;;;;;;15.90;12.80;;;23.80;99.90;;;;;;5087680;28;20201;-82
2021/07/23 09:07:44;;;;;;;16.10;12.87;;;23.80;99.90;;;;;;5088120;28;20734;-82
2021/07/23 09:10:09;;;;;;;15.63;11.90;;;23.80;99.90;;;;;;5085834;28;20175;-82
2021/07/23 09:12:41;;;;;;;17.37;12.53;;;23.90;99.90;;;;;;5086258;28;20198;-82
2021/07/23 09:15:27;;;;;;;18.47;12.60;;;23.90;99.90;;;;;;5086531;28;20173;-82
2021/07/23 09:17:54;;;;;;;14.63;11.83;;;24.10;99.90;;;;;;5086580;28;20242;-82
2021/07/23 09:20:22;;;;;;;14.93;12.10;;;24.30;99.90;;;;;;5086954;28;20180;-82
2021/07/23 09:22:59;;;;;;;16.57;12.47;;;24.40;99.90;;;;;;5088601;28;20277;-82
2021/07/23 09:25:37;;;;;;;14.83;11.60;;;24.40;99.90;;;;;;5088001;28;20183;-81
2021/07/23 09:28:27;;;;;;;16.30;11.57;;;24.40;99.90;;;;;;5086712;28;20200;-82
2021/07/23 09:30:55;;;;;;;14.47;11.60;;;24.40;99.90;;;;;;5088363;28;20172;-82
2021/07/23 09:33:30;;;;;;;16.17;11.90;;;24.40;99.90;;;;;;5086908;28;20601;-82
2021/07/23 09:35:57;;;;;;;12.80;10.77;;;24.60;99.90;;;;;;5088321;28;20169;-82
2021/07/23 09:38:24;;;;;;;16.37;12.17;;;24.70;99.90;;;;;;5084924;28;20180;-82
2021/07/23 09:40:52;;;;;;;18.73;11.93;;;24.90;99.90;;;;;;5084927;28;20181;-82
2021/07/23 09:43:33;;;;;;;15.37;12.40;;;25.10;99.90;;;;;;5084538;28;20201;-82
2021/07/23 09:46:18;;;;;;;15.27;11.77;;;25.30;99.90;;;;;;5084380;28;20242;-82
2021/07/23 09:48:44;;;;;;;17.97;11.40;;;25.40;99.90;;;;;;5085579;28;20267;-81
2021/07/23 09:51:10;;;;;;;12.60;10.70;;;25.50;99.90;;;;;;5084701;28;20586;-82
2021/07/23 09:53:36;;;;;;;12.80;10.37;;;25.60;99.90;;;;;;5082692;28;20195;-81
2021/07/23 09:56:07;;;;;;;14.27;11.40;;;25.80;99.90;;;;;;5082692;28;20327;-82
2021/07/23 09:58:52;;;;;;;13.17;11.17;;;25.90;99.90;;;;;;5081654;28;20271;-82
2021/07/23 10:01:29;;;;;;;13.13;10.93;;;26.00;99.90;;;;;;5081138;28;20676;-81
2021/07/23 10:03:58;;;;;;;14.93;12.43;;;26.30;99.90;;;;;;5081387;28;20173;-81
2021/07/23 10:06:33;;;;;;;17.13;11.53;;;26.50;99.90;;;;;;5092253;28;20211;-82
2021/07/23 10:09:10;;;;;;;18.60;11.90;;;26.70;99.90;;;;;;5086429;28;20205;-82
2021/07/23 10:11:38;;;;;;;15.47;10.77;;;26.90;99.90;;;;;;5087805;28;20192;-82
2021/07/23 10:14:07;;;;;;;15.40;11.67;;;27.00;99.90;;;;;;5086919;28;20709;-82
2021/07/23 10:16:34;;;;;;;15.40;10.97;;;27.00;99.90;;;;;;5088630;28;20172;-83
2021/07/23 10:19:01;;;;;;;15.07;11.70;;;26.80;99.90;;;;;;5087781;28;20541;-82
2021/07/23 10:21:26;;;;;;;13.33;11.07;;;26.90;99.90;;;;;;5088500;28;20167;-82
2021/07/23 10:23:53;;;;;;;13.60;10.97;;;26.80;99.90;;;;;;5089019;28;20213;-82
2021/07/23 10:26:18;;;;;;;13.20;10.97;;;26.80;99.90;;;;;;5088943;28;20185;-82
2021/07/23 10:28:44;;;;;;;14.23;11.10;;;26.90;99.90;;;;;;5090315;28;20208;-82
2021/07/23 10:31:32;;;;;;;12.30;10.60;;;27.10;99.90;;;;;;5087114;28;20236;-82
2021/07/23 10:34:02;;;;;;;15.50;10.67;;;27.60;99.90;;;;;;5084214;28;20181;-82
2021/07/23 10:36:30;;;;;;;13.03;11.13;;;27.70;99.90;;;;;;5087742;28;20172;-82
2021/07/23 10:39:07;;;;;;;12.47;9.73;;;27.60;99.90;;;;;;5085446;28;20181;-83
2021/07/23 10:41:36;;;;;;;18.50;11.27;;;27.50;99.90;;;;;;5089134;28;20171;-82
2021/07/23 10:44:04;;;;;;;13.57;9.97;;;27.50;99.90;;;;;;5093628;28;20244;-80
2021/07/23 10:46:48;;;;;;;13.97;10.97;;;27.90;99.90;;;;;;5095805;28;20203;-83
2021/07/23 10:49:44;;;;;;;14.37;10.60;;;28.20;99.90;;;;;;5088978;28;20213;-82
2021/07/23 10:52:25;;;;;;;13.67;11.20;;;28.30;99.90;;;;;;5082369;28;20653;-81
2021/07/23 10:55:11;;;;;;;16.23;11.60;;;28.40;99.90;;;;;;5082599;28;20169;-82
2021/07/23 10:57:37;;;;;;;12.67;11.30;;;28.20;99.90;;;;;;5080437;28;20267;-82
2021/07/23 11:00:04;;;;;;;15.93;10.77;;;27.70;99.90;;;;;;5084317;28;20206;-82
2021/07/23 11:02:30;;;;;;;13.97;10.50;;;27.20;99.90;;;;;;5095148;28;20201;-82
2021/07/23 11:05:13;;;;;;;12.63;11.13;;;27.40;99.90;;;;;;5093025;28;20250;-82
2021/07/23 11:07:39;;;;;;;13.00;11.27;;;27.40;99.90;;;;;;5084865;28;20219;-82
2021/07/23 11:10:09;;;;;;;17.87;10.83;;;27.60;99.90;;;;;;5083124;28;20177;-82
2021/07/23 11:12:41;;;;;;;11.70;10.50;;;27.70;99.90;;;;;;5083741;28;20234;-81
2021/07/23 11:15:10;;;;;;;12.00;10.63;;;28.00;99.90;;;;;;5083187;28;20185;-82
2021/07/23 11:17:56;;;;;;;12.20;10.90;;;28.30;99.90;;;;;;5084063;28;20181;-79
2021/07/23 11:20:34;;;;;;;13.67;11.07;;;28.20;99.90;;;;;;5085642;28;20220;-81
2021/07/23 11:23:00;;;;;;;14.17;10.20;;;28.20;99.90;;;;;;5082955;28;20202;-82
2021/07/23 11:25:29;;;;;;;13.47;10.90;;;28.50;99.90;;;;;;5084007;28;20192;-82
2021/07/23 11:27:59;;;;;;;13.20;11.23;;;28.20;99.90;;;;;;5083789;28;20210;-83
2021/07/23 11:30:26;;;;;;;12.60;10.17;;;27.80;99.90;;;;;;5085469;28;20217;-82
2021/07/23 11:32:56;;;;;;;12.27;10.10;;;27.90;99.90;;;;;;5084606;28;20255;-82
2021/07/23 11:35:23;;;;;;;12.53;10.03;;;28.50;99.90;;;;;;5082102;28;20245;-82
2021/07/23 11:37:50;;;;;;;12.17;9.83;;;28.90;99.90;;;;;;5081500;28;20183;-83
2021/07/23 11:40:17;;;;;;;13.00;11.07;;;29.30;99.90;;;;;;5078824;28;20183;-83
2021/07/23 11:42:50;;;;;;;11.53;10.27;;;29.40;99.90;;;;;;5079024;28;20212;-83
2021/07/23 11:45:17;;;;;;;13.33;11.10;;;29.70;99.90;;;;;;5079355;28;20179;-83
2021/07/23 11:47:53;;;;;;;11.73;10.13;;;30.20;99.90;;;;;;5078536;28;20208;-81
2021/07/23 11:50:21;;;;;;;13.47;10.23;;;30.50;99.90;;;;;;5078681;28;20177;-83
2021/07/23 11:52:50;;;;;;;15.67;10.97;;;30.00;99.90;;;;;;5078612;28;20273;-82
2021/07/23 11:55:17;;;;;;;12.97;10.90;;;29.20;99.90;;;;;;5077965;28;20173;-81
2021/07/23 11:57:45;;;;;;;14.67;10.70;;;28.70;99.90;;;;;;5075642;28;20186;-78
2021/07/23 12:00:19;;;;;;;11.87;10.53;;;29.10;99.90;;;;;;5086905;28;20161;-80
2021/07/23 12:02:50;;;;;;;11.80;10.53;;;29.20;99.90;;;;;;5085107;28;20267;-82
2021/07/23 12:05:16;;;;;;;12.07;10.43;;;29.50;99.90;;;;;;5085923;28;20724;-82
2021/07/23 12:07:45;;;;;;;11.47;10.27;;;30.10;99.90;;;;;;5087920;28;20246;-80
2021/07/23 12:10:16;;;;;;;14.20;11.17;;;30.20;99.90;;;;;;5088529;28;20172;-83
2021/07/23 12:12:42;;;;;;;13.53;10.90;;;30.40;99.90;;;;;;5086030;28;20208;-80
2021/07/23 12:15:12;;;;;;;12.03;10.83;;;30.60;99.90;;;;;;5084757;28;20177;-80
2021/07/23 12:17:44;;;;;;;12.00;10.00;;;30.20;99.90;;;;;;5085239;28;20181;-83
2021/07/23 12:20:11;;;;;;;11.90;9.73;;;29.10;99.90;;;;;;5084475;28;20181;-81
2021/07/23 12:22:37;;;;;;;11.93;9.57;;;28.40;99.90;;;;;;5085093;28;20221;-82
2021/07/23 12:25:23;;;;;;;12.57;9.63;;;28.70;99.90;;;;;;5084354;28;20189;-83
2021/07/23 12:28:13;;;;;;;12.60;10.33;;;29.40;99.90;;;;;;5084273;28;20209;-81
2021/07/23 12:30:40;;;;;;;13.73;10.10;;;30.20;99.90;;;;;;5088482;28;20169;-81